METAR Formatted Surface Weather Observation
Issued by NWS

Home | Current Version | Previous Version | Text Only | Print | Product List | Glossary On
Versions: 1 2 3 4
000
SAUS43 KMQT 021956
MTRP59
METAR KP59 021951Z AUTO 00000KT 20/17 A2997 RMK AO1 SLP144 T02000167



USA.gov is the U.S. government's official web portal to all federal, state and local government web resources and services.